Herron Island, Washington
Current Conditions -  °F | °C
As of 2:53 PM on Saturday 20 Dec 2014 (Local Time) from KTIW Reporting Station
Haze Haze  
Wind Chill: 46°   Ceiling: 2500
Heat Index: 49°   Visibility: 6mi
Dew Point: 47°   Wind: 7mph
Humidity: 93%   Direction: 170°S
Pressure: 29.5"   Gusts: NA
Location:  47.264°N, 122.772°W
Report Text: KTIW 202253Z 17006KT 6SM BR SCT018 OVC025 09/08 A2950 RMK AO2 RAE41 SLP990 P0005 T00940083
Loading
Personal Weather Stations






























Interactive Weather Map New forecast layout! Learn more

10-Day Weather Forecast

Advertisements
Track Severe Weather on mobile